sensor_id;sensor_type;location;lat;lon;timestamp;P1;durP1;ratioP1;P2;durP2;ratioP2
66707;SDS011;53622;0.000;0.000;2024-03-07T00:00:16;1.65;;;0.90;;
66707;SDS011;53622;0.000;0.000;2024-03-07T00:02:46;1.15;;;0.90;;
66707;SDS011;53622;0.000;0.000;2024-03-07T00:05:16;1.45;;;1.05;;
66707;SDS011;53622;0.000;0.000;2024-03-07T00:07:46;1.42;;;1.15;;
66707;SDS011;53622;0.000;0.000;2024-03-07T00:10:16;0.80;;;0.80;;
66707;SDS011;53622;0.000;0.000;2024-03-07T00:12:44;0.98;;;0.88;;
66707;SDS011;53622;0.000;0.000;2024-03-07T00:15:15;2.20;;;0.95;;
66707;SDS011;53622;0.000;0.000;2024-03-07T00:17:45;1.20;;;1.10;;
66707;SDS011;53622;0.000;0.000;2024-03-07T00:20:13;1.13;;;0.90;;
66707;SDS011;53622;0.000;0.000;2024-03-07T00:22:46;1.85;;;1.15;;
66707;SDS011;53622;0.000;0.000;2024-03-07T00:25:15;2.22;;;1.25;;
66707;SDS011;53622;0.000;0.000;2024-03-07T00:27:48;1.48;;;1.20;;
66707;SDS011;53622;0.000;0.000;2024-03-07T00:30:20;1.40;;;1.30;;
66707;SDS011;53622;0.000;0.000;2024-03-07T00:32:49;1.23;;;1.02;;
66707;SDS011;53622;0.000;0.000;2024-03-07T00:35:17;1.23;;;1.10;;
66707;SDS011;53622;0.000;0.000;2024-03-07T00:37:47;1.08;;;1.00;;
66707;SDS011;53622;0.000;0.000;2024-03-07T00:40:16;1.15;;;1.05;;
66707;SDS011;53622;0.000;0.000;2024-03-07T00:42:44;1.88;;;1.08;;
66707;SDS011;53622;0.000;0.000;2024-03-07T00:45:14;1.33;;;1.23;;
66707;SDS011;53622;0.000;0.000;2024-03-07T00:47:43;2.45;;;1.20;;
66707;SDS011;53622;0.000;0.000;2024-03-07T00:50:12;1.67;;;1.15;;
66707;SDS011;53622;0.000;0.000;2024-03-07T00:52:40;1.70;;;1.23;;
66707;SDS011;53622;0.000;0.000;2024-03-07T00:55:09;2.20;;;1.13;;
66707;SDS011;53622;0.000;0.000;2024-03-07T00:57:38;1.27;;;1.00;;
66707;SDS011;53622;0.000;0.000;2024-03-07T01:00:07;1.38;;;1.25;;
66707;SDS011;53622;0.000;0.000;2024-03-07T01:02:42;1.67;;;1.10;;
66707;SDS011;53622;0.000;0.000;2024-03-07T01:05:11;1.98;;;1.20;;
66707;SDS011;53622;0.000;0.000;2024-03-07T01:07:41;1.80;;;1.20;;
66707;SDS011;53622;0.000;0.000;2024-03-07T01:10:12;1.60;;;1.23;;
66707;SDS011;53622;0.000;0.000;2024-03-07T01:12:42;1.20;;;1.00;;
66707;SDS011;53622;0.000;0.000;2024-03-07T01:15:11;1.63;;;1.10;;
66707;SDS011;53622;0.000;0.000;2024-03-07T01:17:43;2.67;;;1.40;;
66707;SDS011;53622;0.000;0.000;2024-03-07T01:20:13;1.77;;;1.20;;
66707;SDS011;53622;0.000;0.000;2024-03-07T01:22:42;1.23;;;1.08;;
66707;SDS011;53622;0.000;0.000;2024-03-07T01:25:10;1.60;;;1.20;;
66707;SDS011;53622;0.000;0.000;2024-03-07T01:27:40;1.75;;;1.30;;
66707;SDS011;53622;0.000;0.000;2024-03-07T01:30:09;1.33;;;1.20;;
66707;SDS011;53622;0.000;0.000;2024-03-07T01:32:38;2.17;;;1.40;;
66707;SDS011;53622;0.000;0.000;2024-03-07T01:35:09;1.90;;;1.20;;
66707;SDS011;53622;0.000;0.000;2024-03-07T01:37:38;2.42;;;1.17;;
66707;SDS011;53622;0.000;0.000;2024-03-07T01:40:07;1.75;;;1.20;;
66707;SDS011;53622;0.000;0.000;2024-03-07T01:42:38;1.08;;;0.98;;
66707;SDS011;53622;0.000;0.000;2024-03-07T01:45:07;1.48;;;1.08;;
66707;SDS011;53622;0.000;0.000;2024-03-07T01:47:36;1.40;;;1.27;;
66707;SDS011;53622;0.000;0.000;2024-03-07T01:50:05;1.55;;;1.20;;
66707;SDS011;53622;0.000;0.000;2024-03-07T01:52:38;1.27;;;1.15;;
66707;SDS011;53622;0.000;0.000;2024-03-07T01:55:08;1.10;;;1.00;;
66707;SDS011;53622;0.000;0.000;2024-03-07T01:57:41;1.20;;;1.10;;
66707;SDS011;53622;0.000;0.000;2024-03-07T02:00:10;1.63;;;1.30;;
66707;SDS011;53622;0.000;0.000;2024-03-07T02:02:40;1.40;;;0.95;;
66707;SDS011;53622;0.000;0.000;2024-03-07T02:05:09;1.92;;;1.05;;
66707;SDS011;53622;0.000;0.000;2024-03-07T02:07:39;1.70;;;1.30;;
66707;SDS011;53622;0.000;0.000;2024-03-07T02:10:09;1.55;;;1.17;;
66707;SDS011;53622;0.000;0.000;2024-03-07T02:12:38;1.08;;;0.98;;
66707;SDS011;53622;0.000;0.000;2024-03-07T02:15:07;1.52;;;1.08;;
66707;SDS011;53622;0.000;0.000;2024-03-07T02:17:37;1.35;;;1.10;;
66707;SDS011;53622;0.000;0.000;2024-03-07T02:20:07;2.03;;;1.20;;
66707;SDS011;53622;0.000;0.000;2024-03-07T02:22:39;1.38;;;1.00;;
66707;SDS011;53622;0.000;0.000;2024-03-07T02:25:09;1.20;;;1.10;;
66707;SDS011;53622;0.000;0.000;2024-03-07T02:27:38;1.65;;;1.10;;
66707;SDS011;53622;0.000;0.000;2024-03-07T02:30:07;2.28;;;1.20;;
66707;SDS011;53622;0.000;0.000;2024-03-07T02:32:36;1.33;;;1.13;;
66707;SDS011;53622;0.000;0.000;2024-03-07T02:35:05;1.13;;;1.02;;
66707;SDS011;53622;0.000;0.000;2024-03-07T02:37:35;2.40;;;1.17;;
66707;SDS011;53622;0.000;0.000;2024-03-07T02:40:07;1.20;;;0.93;;
66707;SDS011;53622;0.000;0.000;2024-03-07T02:42:38;2.00;;;1.20;;
66707;SDS011;53622;0.000;0.000;2024-03-07T02:45:08;1.40;;;1.02;;
66707;SDS011;53622;0.000;0.000;2024-03-07T02:47:42;1.30;;;1.15;;
66707;SDS011;53622;0.000;0.000;2024-03-07T02:50:11;1.50;;;1.15;;
66707;SDS011;53622;0.000;0.000;2024-03-07T02:52:40;1.75;;;1.20;;
66707;SDS011;53622;0.000;0.000;2024-03-07T02:55:10;1.42;;;1.33;;
66707;SDS011;53622;0.000;0.000;2024-03-07T02:57:40;1.67;;;1.30;;
66707;SDS011;53622;0.000;0.000;2024-03-07T03:00:09;1.30;;;0.98;;
66707;SDS011;53622;0.000;0.000;2024-03-07T03:02:46;1.52;;;1.20;;
66707;SDS011;53622;0.000;0.000;2024-03-07T03:05:16;1.15;;;0.80;;
66707;SDS011;53622;0.000;0.000;2024-03-07T03:07:46;0.98;;;0.80;;
66707;SDS011;53622;0.000;0.000;2024-03-07T03:10:23;1.50;;;1.20;;
66707;SDS011;53622;0.000;0.000;2024-03-07T03:12:56;1.67;;;1.10;;
66707;SDS011;53622;0.000;0.000;2024-03-07T03:15:27;1.20;;;1.10;;
66707;SDS011;53622;0.000;0.000;2024-03-07T03:17:56;2.05;;;1.20;;
66707;SDS011;53622;0.000;0.000;2024-03-07T03:20:27;1.67;;;1.30;;
66707;SDS011;53622;0.000;0.000;2024-03-07T03:23:02;1.00;;;0.90;;
66707;SDS011;53622;0.000;0.000;2024-03-07T03:25:35;1.70;;;1.20;;
66707;SDS011;53622;0.000;0.000;2024-03-07T03:28:05;1.50;;;1.10;;
66707;SDS011;53622;0.000;0.000;2024-03-07T03:30:36;1.13;;;1.08;;
66707;SDS011;53622;0.000;0.000;2024-03-07T03:33:05;1.85;;;1.10;;
66707;SDS011;53622;0.000;0.000;2024-03-07T03:35:34;1.20;;;1.10;;
66707;SDS011;53622;0.000;0.000;2024-03-07T03:38:03;1.08;;;0.98;;
66707;SDS011;53622;0.000;0.000;2024-03-07T03:40:32;2.30;;;1.10;;
66707;SDS011;53622;0.000;0.000;2024-03-07T03:43:02;1.33;;;1.10;;
66707;SDS011;53622;0.000;0.000;2024-03-07T03:45:31;1.20;;;1.00;;
66707;SDS011;53622;0.000;0.000;2024-03-07T03:48:01;1.35;;;0.98;;
66707;SDS011;53622;0.000;0.000;2024-03-07T03:50:30;2.53;;;1.00;;
66707;SDS011;53622;0.000;0.000;2024-03-07T03:52:59;1.25;;;1.05;;
66707;SDS011;53622;0.000;0.000;2024-03-07T03:55:30;1.98;;;1.23;;
66707;SDS011;53622;0.000;0.000;2024-03-07T03:58:00;1.35;;;1.05;;
66707;SDS011;53622;0.000;0.000;2024-03-07T04:00:30;1.35;;;1.25;;
66707;SDS011;53622;0.000;0.000;2024-03-07T04:02:59;1.30;;;0.90;;
66707;SDS011;53622;0.000;0.000;2024-03-07T04:05:27;1.30;;;1.00;;
66707;SDS011;53622;0.000;0.000;2024-03-07T04:07:56;1.08;;;0.90;;
66707;SDS011;53622;0.000;0.000;2024-03-07T04:10:25;1.13;;;1.00;;
66707;SDS011;53622;0.000;0.000;2024-03-07T04:12:54;1.40;;;1.17;;
66707;SDS011;53622;0.000;0.000;2024-03-07T04:15:22;1.35;;;1.20;;
66707;SDS011;53622;0.000;0.000;2024-03-07T04:18:03;1.30;;;1.05;;
66707;SDS011;53622;0.000;0.000;2024-03-07T04:20:32;1.10;;;0.90;;
66707;SDS011;53622;0.000;0.000;2024-03-07T04:23:01;1.45;;;1.20;;
66707;SDS011;53622;0.000;0.000;2024-03-07T04:25:30;1.58;;;1.10;;
66707;SDS011;53622;0.000;0.000;2024-03-07T04:28:00;1.33;;;0.95;;
66707;SDS011;53622;0.000;0.000;2024-03-07T04:30:29;1.27;;;1.00;;
66707;SDS011;53622;0.000;0.000;2024-03-07T04:32:58;1.10;;;1.00;;
66707;SDS011;53622;0.000;0.000;2024-03-07T04:35:28;1.08;;;0.98;;
66707;SDS011;53622;0.000;0.000;2024-03-07T04:37:58;1.30;;;1.13;;
66707;SDS011;53622;0.000;0.000;2024-03-07T04:40:26;1.52;;;1.10;;
66707;SDS011;53622;0.000;0.000;2024-03-07T04:42:55;1.38;;;1.00;;
66707;SDS011;53622;0.000;0.000;2024-03-07T04:45:24;1.65;;;1.17;;
66707;SDS011;53622;0.000;0.000;2024-03-07T04:47:52;1.38;;;1.20;;
66707;SDS011;53622;0.000;0.000;2024-03-07T04:50:21;1.30;;;0.90;;
66707;SDS011;53622;0.000;0.000;2024-03-07T04:52:51;1.30;;;0.90;;
66707;SDS011;53622;0.000;0.000;2024-03-07T04:55:20;1.77;;;1.00;;
66707;SDS011;53622;0.000;0.000;2024-03-07T04:57:49;1.13;;;1.02;;
66707;SDS011;53622;0.000;0.000;2024-03-07T05:00:18;1.98;;;1.30;;
66707;SDS011;53622;0.000;0.000;2024-03-07T05:02:48;1.10;;;0.98;;
66707;SDS011;53622;0.000;0.000;2024-03-07T05:05:18;1.08;;;0.85;;
66707;SDS011;53622;0.000;0.000;2024-03-07T05:07:51;1.38;;;1.27;;
66707;SDS011;53622;0.000;0.000;2024-03-07T05:10:20;2.28;;;1.05;;
66707;SDS011;53622;0.000;0.000;2024-03-07T05:12:49;1.13;;;0.88;;
66707;SDS011;53622;0.000;0.000;2024-03-07T05:15:18;1.25;;;1.10;;
66707;SDS011;53622;0.000;0.000;2024-03-07T05:17:47;2.58;;;0.93;;
66707;SDS011;53622;0.000;0.000;2024-03-07T05:20:16;1.42;;;1.10;;
66707;SDS011;53622;0.000;0.000;2024-03-07T05:22:45;1.00;;;0.90;;
66707;SDS011;53622;0.000;0.000;2024-03-07T05:25:19;3.95;;;1.52;;
66707;SDS011;53622;0.000;0.000;2024-03-07T05:27:49;5.32;;;1.30;;
66707;SDS011;53622;0.000;0.000;2024-03-07T05:30:19;3.50;;;1.30;;
66707;SDS011;53622;0.000;0.000;2024-03-07T05:32:50;7.32;;;1.05;;
66707;SDS011;53622;0.000;0.000;2024-03-07T05:35:19;1.77;;;1.10;;
66707;SDS011;53622;0.000;0.000;2024-03-07T05:37:48;3.65;;;1.55;;
66707;SDS011;53622;0.000;0.000;2024-03-07T05:40:20;1.58;;;0.90;;
66707;SDS011;53622;0.000;0.000;2024-03-07T05:42:49;3.22;;;1.00;;
66707;SDS011;53622;0.000;0.000;2024-03-07T05:45:18;1.15;;;0.82;;
66707;SDS011;53622;0.000;0.000;2024-03-07T05:47:46;2.97;;;0.98;;
66707;SDS011;53622;0.000;0.000;2024-03-07T05:50:16;2.33;;;0.70;;
66707;SDS011;53622;0.000;0.000;2024-03-07T05:52:46;2.13;;;1.02;;
66707;SDS011;53622;0.000;0.000;2024-03-07T05:55:15;1.73;;;0.90;;
66707;SDS011;53622;0.000;0.000;2024-03-07T05:57:48;4.60;;;0.88;;
66707;SDS011;53622;0.000;0.000;2024-03-07T06:00:16;1.52;;;0.93;;
66707;SDS011;53622;0.000;0.000;2024-03-07T06:02:55;2.90;;;1.35;;
66707;SDS011;53622;0.000;0.000;2024-03-07T06:05:24;3.95;;;0.90;;
66707;SDS011;53622;0.000;0.000;2024-03-07T06:07:54;1.50;;;1.10;;
66707;SDS011;53622;0.000;0.000;2024-03-07T06:10:23;4.72;;;1.10;;
66707;SDS011;53622;0.000;0.000;2024-03-07T06:12:54;2.00;;;1.20;;
66707;SDS011;53622;0.000;0.000;2024-03-07T06:15:36;3.88;;;1.00;;
66707;SDS011;53622;0.000;0.000;2024-03-07T06:18:06;2.25;;;0.98;;
66707;SDS011;53622;0.000;0.000;2024-03-07T06:20:38;4.00;;;1.15;;
66707;SDS011;53622;0.000;0.000;2024-03-07T06:23:08;4.00;;;1.00;;
66707;SDS011;53622;0.000;0.000;2024-03-07T06:25:39;3.17;;;1.25;;
66707;SDS011;53622;0.000;0.000;2024-03-07T06:28:16;2.92;;;1.25;;
66707;SDS011;53622;0.000;0.000;2024-03-07T06:30:45;3.25;;;1.30;;
66707;SDS011;53622;0.000;0.000;2024-03-07T06:33:15;2.17;;;1.02;;
66707;SDS011;53622;0.000;0.000;2024-03-07T06:35:48;2.88;;;1.15;;
66707;SDS011;53622;0.000;0.000;2024-03-07T06:38:18;2.15;;;1.30;;
66707;SDS011;53622;0.000;0.000;2024-03-07T06:40:48;1.88;;;1.25;;
66707;SDS011;53622;0.000;0.000;2024-03-07T06:43:18;3.95;;;1.10;;
66707;SDS011;53622;0.000;0.000;2024-03-07T06:45:47;2.58;;;1.25;;
66707;SDS011;53622;0.000;0.000;2024-03-07T06:48:16;3.53;;;1.30;;
66707;SDS011;53622;0.000;0.000;2024-03-07T06:50:46;3.33;;;1.58;;
66707;SDS011;53622;0.000;0.000;2024-03-07T06:53:14;1.77;;;1.00;;
66707;SDS011;53622;0.000;0.000;2024-03-07T06:55:43;1.35;;;1.10;;
66707;SDS011;53622;0.000;0.000;2024-03-07T06:58:12;1.73;;;1.17;;
66707;SDS011;53622;0.000;0.000;2024-03-07T07:00:42;2.35;;;1.40;;
66707;SDS011;53622;0.000;0.000;2024-03-07T07:03:12;1.92;;;1.38;;
66707;SDS011;53622;0.000;0.000;2024-03-07T07:05:41;2.03;;;1.25;;
66707;SDS011;53622;0.000;0.000;2024-03-07T07:08:11;2.53;;;1.30;;
66707;SDS011;53622;0.000;0.000;2024-03-07T07:10:41;1.00;;;0.90;;
66707;SDS011;53622;0.000;0.000;2024-03-07T07:13:10;2.65;;;1.35;;
66707;SDS011;53622;0.000;0.000;2024-03-07T07:15:40;1.45;;;1.00;;
66707;SDS011;53622;0.000;0.000;2024-03-07T07:18:10;2.25;;;1.20;;
66707;SDS011;53622;0.000;0.000;2024-03-07T07:20:40;1.73;;;1.10;;
66707;SDS011;53622;0.000;0.000;2024-03-07T07:23:09;2.38;;;1.30;;
66707;SDS011;53622;0.000;0.000;2024-03-07T07:25:38;2.50;;;1.40;;
66707;SDS011;53622;0.000;0.000;2024-03-07T07:28:07;3.38;;;1.17;;
66707;SDS011;53622;0.000;0.000;2024-03-07T07:30:38;3.72;;;1.27;;
66707;SDS011;53622;0.000;0.000;2024-03-07T07:33:12;1.73;;;1.02;;
66707;SDS011;53622;0.000;0.000;2024-03-07T07:35:41;1.88;;;1.40;;
66707;SDS011;53622;0.000;0.000;2024-03-07T07:38:10;1.92;;;0.95;;
66707;SDS011;53622;0.000;0.000;2024-03-07T07:40:42;2.20;;;1.20;;
66707;SDS011;53622;0.000;0.000;2024-03-07T07:43:12;1.98;;;1.48;;
66707;SDS011;53622;0.000;0.000;2024-03-07T07:45:55;2.67;;;1.55;;
66707;SDS011;53622;0.000;0.000;2024-03-07T07:48:25;1.75;;;1.20;;
66707;SDS011;53622;0.000;0.000;2024-03-07T07:50:54;2.17;;;1.20;;
66707;SDS011;53622;0.000;0.000;2024-03-07T07:53:23;1.98;;;1.30;;
66707;SDS011;53622;0.000;0.000;2024-03-07T07:55:51;1.33;;;1.17;;
66707;SDS011;53622;0.000;0.000;2024-03-07T07:58:20;1.75;;;1.40;;
66707;SDS011;53622;0.000;0.000;2024-03-07T08:00:49;1.85;;;1.48;;
66707;SDS011;53622;0.000;0.000;2024-03-07T08:03:18;1.70;;;1.10;;
66707;SDS011;53622;0.000;0.000;2024-03-07T08:05:50;2.65;;;1.40;;
66707;SDS011;53622;0.000;0.000;2024-03-07T08:08:21;2.00;;;1.25;;
66707;SDS011;53622;0.000;0.000;2024-03-07T08:10:50;1.52;;;1.30;;
66707;SDS011;53622;0.000;0.000;2024-03-07T08:13:19;1.83;;;1.40;;
66707;SDS011;53622;0.000;0.000;2024-03-07T08:15:48;2.40;;;1.40;;
66707;SDS011;53622;0.000;0.000;2024-03-07T08:18:17;1.48;;;1.00;;
66707;SDS011;53622;0.000;0.000;2024-03-07T08:20:47;1.58;;;1.10;;
66707;SDS011;53622;0.000;0.000;2024-03-07T08:23:20;1.88;;;1.45;;
66707;SDS011;53622;0.000;0.000;2024-03-07T08:25:52;1.85;;;1.25;;
66707;SDS011;53622;0.000;0.000;2024-03-07T08:28:20;1.75;;;1.40;;
66707;SDS011;53622;0.000;0.000;2024-03-07T08:30:49;1.90;;;1.40;;
66707;SDS011;53622;0.000;0.000;2024-03-07T08:33:18;1.92;;;1.50;;
66707;SDS011;53622;0.000;0.000;2024-03-07T08:35:49;1.60;;;1.20;;
66707;SDS011;53622;0.000;0.000;2024-03-07T08:38:21;1.67;;;1.15;;
66707;SDS011;53622;0.000;0.000;2024-03-07T08:40:50;2.08;;;1.40;;
66707;SDS011;53622;0.000;0.000;2024-03-07T08:43:19;1.85;;;1.30;;
66707;SDS011;53622;0.000;0.000;2024-03-07T08:45:48;1.80;;;1.30;;
66707;SDS011;53622;0.000;0.000;2024-03-07T08:48:16;1.75;;;1.25;;
66707;SDS011;53622;0.000;0.000;2024-03-07T08:50:46;1.73;;;1.25;;
66707;SDS011;53622;0.000;0.000;2024-03-07T08:53:15;1.77;;;1.30;;
66707;SDS011;53622;0.000;0.000;2024-03-07T08:55:47;1.63;;;1.23;;
66707;SDS011;53622;0.000;0.000;2024-03-07T08:58:15;2.33;;;1.38;;
66707;SDS011;53622;0.000;0.000;2024-03-07T09:00:44;1.48;;;1.20;;
66707;SDS011;53622;0.000;0.000;2024-03-07T09:03:13;1.92;;;1.20;;
66707;SDS011;53622;0.000;0.000;2024-03-07T09:05:42;1.25;;;1.15;;
66707;SDS011;53622;0.000;0.000;2024-03-07T09:08:11;2.25;;;1.50;;
66707;SDS011;53622;0.000;0.000;2024-03-07T09:10:40;1.45;;;1.15;;
66707;SDS011;53622;0.000;0.000;2024-03-07T09:13:11;2.03;;;1.38;;
66707;SDS011;53622;0.000;0.000;2024-03-07T09:15:39;1.63;;;1.15;;
66707;SDS011;53622;0.000;0.000;2024-03-07T09:18:08;1.75;;;1.23;;
66707;SDS011;53622;0.000;0.000;2024-03-07T09:20:37;1.38;;;1.27;;
66707;SDS011;53622;0.000;0.000;2024-03-07T09:23:06;1.40;;;1.30;;
66707;SDS011;53622;0.000;0.000;2024-03-07T09:25:35;1.33;;;1.10;;
66707;SDS011;53622;0.000;0.000;2024-03-07T09:28:04;1.73;;;1.30;;
66707;SDS011;53622;0.000;0.000;2024-03-07T09:30:35;1.30;;;1.20;;
66707;SDS011;53622;0.000;0.000;2024-03-07T09:33:06;1.08;;;0.98;;
66707;SDS011;53622;0.000;0.000;2024-03-07T09:35:39;1.70;;;1.20;;
66707;SDS011;53622;0.000;0.000;2024-03-07T09:38:08;2.53;;;1.20;;
66707;SDS011;53622;0.000;0.000;2024-03-07T09:40:38;1.92;;;1.30;;
66707;SDS011;53622;0.000;0.000;2024-03-07T09:43:07;1.40;;;1.13;;
66707;SDS011;53622;0.000;0.000;2024-03-07T09:45:42;3.15;;;1.20;;
66707;SDS011;53622;0.000;0.000;2024-03-07T09:48:14;2.05;;;1.33;;
66707;SDS011;53622;0.000;0.000;2024-03-07T09:50:44;1.63;;;1.30;;
66707;SDS011;53622;0.000;0.000;2024-03-07T09:53:18;1.73;;;1.30;;
66707;SDS011;53622;0.000;0.000;2024-03-07T09:55:48;1.52;;;1.20;;
66707;SDS011;53622;0.000;0.000;2024-03-07T09:58:17;1.90;;;1.20;;
66707;SDS011;53622;0.000;0.000;2024-03-07T10:00:49;1.38;;;1.20;;
66707;SDS011;53622;0.000;0.000;2024-03-07T10:03:20;1.20;;;1.10;;
66707;SDS011;53622;0.000;0.000;2024-03-07T10:05:51;1.48;;;1.20;;
66707;SDS011;53622;0.000;0.000;2024-03-07T10:08:21;1.70;;;1.15;;
66707;SDS011;53622;0.000;0.000;2024-03-07T10:10:51;2.10;;;1.33;;
66707;SDS011;53622;0.000;0.000;2024-03-07T10:13:22;1.10;;;1.00;;
66707;SDS011;53622;0.000;0.000;2024-03-07T10:15:54;2.45;;;1.20;;
66707;SDS011;53622;0.000;0.000;2024-03-07T10:18:26;1.50;;;1.20;;
66707;SDS011;53622;0.000;0.000;2024-03-07T10:20:56;1.60;;;1.13;;
66707;SDS011;53622;0.000;0.000;2024-03-07T10:23:25;2.42;;;1.30;;
66707;SDS011;53622;0.000;0.000;2024-03-07T10:25:54;1.42;;;1.10;;
66707;SDS011;53622;0.000;0.000;2024-03-07T10:28:25;2.78;;;1.30;;
66707;SDS011;53622;0.000;0.000;2024-03-07T10:30:56;1.50;;;1.20;;
66707;SDS011;53622;0.000;0.000;2024-03-07T10:33:26;1.58;;;1.10;;
66707;SDS011;53622;0.000;0.000;2024-03-07T10:35:55;1.33;;;1.10;;
66707;SDS011;53622;0.000;0.000;2024-03-07T10:38:24;1.25;;;1.00;;
66707;SDS011;53622;0.000;0.000;2024-03-07T10:40:54;1.20;;;1.00;;
66707;SDS011;53622;0.000;0.000;2024-03-07T10:43:23;1.15;;;0.88;;
66707;SDS011;53622;0.000;0.000;2024-03-07T10:45:56;1.27;;;1.10;;
66707;SDS011;53622;0.000;0.000;2024-03-07T10:48:29;2.08;;;1.05;;
66707;SDS011;53622;0.000;0.000;2024-03-07T10:51:06;1.73;;;1.40;;
66707;SDS011;53622;0.000;0.000;2024-03-07T10:53:45;1.80;;;1.20;;
66707;SDS011;53622;0.000;0.000;2024-03-07T10:56:26;1.35;;;1.08;;
66707;SDS011;53622;0.000;0.000;2024-03-07T10:59:04;1.85;;;1.20;;
66707;SDS011;53622;0.000;0.000;2024-03-07T11:01:44;1.40;;;1.23;;
66707;SDS011;53622;0.000;0.000;2024-03-07T11:04:21;1.38;;;0.80;;
66707;SDS011;53622;0.000;0.000;2024-03-07T11:06:51;1.35;;;1.00;;
66707;SDS011;53622;0.000;0.000;2024-03-07T11:09:21;1.35;;;0.90;;
66707;SDS011;53622;0.000;0.000;2024-03-07T11:11:56;1.75;;;0.93;;
66707;SDS011;53622;0.000;0.000;2024-03-07T11:14:28;1.00;;;0.90;;
66707;SDS011;53622;0.000;0.000;2024-03-07T11:17:00;1.30;;;0.82;;
66707;SDS011;53622;0.000;0.000;2024-03-07T11:19:31;1.30;;;1.10;;
66707;SDS011;53622;0.000;0.000;2024-03-07T11:22:03;0.85;;;0.73;;
66707;SDS011;53622;0.000;0.000;2024-03-07T11:24:43;1.55;;;1.15;;
66707;SDS011;53622;0.000;0.000;2024-03-07T11:27:12;1.33;;;0.98;;
66707;SDS011;53622;0.000;0.000;2024-03-07T11:29:43;1.88;;;1.15;;
66707;SDS011;53622;0.000;0.000;2024-03-07T11:32:16;2.60;;;1.05;;
66707;SDS011;53622;0.000;0.000;2024-03-07T11:34:48;1.00;;;0.90;;
66707;SDS011;53622;0.000;0.000;2024-03-07T11:37:17;1.52;;;0.88;;
66707;SDS011;53622;0.000;0.000;2024-03-07T11:39:50;1.52;;;1.00;;
66707;SDS011;53622;0.000;0.000;2024-03-07T11:42:23;0.90;;;0.80;;
66707;SDS011;53622;0.000;0.000;2024-03-07T11:44:54;0.88;;;0.77;;
66707;SDS011;53622;0.000;0.000;2024-03-07T11:47:26;0.85;;;0.80;;
66707;SDS011;53622;0.000;0.000;2024-03-07T11:50:05;1.50;;;1.08;;
66707;SDS011;53622;0.000;0.000;2024-03-07T11:52:39;2.00;;;1.02;;
66707;SDS011;53622;0.000;0.000;2024-03-07T11:55:09;2.55;;;0.80;;
66707;SDS011;53622;0.000;0.000;2024-03-07T11:57:38;0.80;;;0.80;;
66707;SDS011;53622;0.000;0.000;2024-03-07T12:00:11;1.10;;;0.85;;
66707;SDS011;53622;0.000;0.000;2024-03-07T12:02:43;1.40;;;0.98;;
66707;SDS011;53622;0.000;0.000;2024-03-07T12:05:12;0.85;;;0.85;;
66707;SDS011;53622;0.000;0.000;2024-03-07T12:07:43;1.73;;;1.00;;
66707;SDS011;53622;0.000;0.000;2024-03-07T12:10:12;1.05;;;0.85;;
66707;SDS011;53622;0.000;0.000;2024-03-07T12:12:42;1.10;;;1.00;;
66707;SDS011;53622;0.000;0.000;2024-03-07T12:15:11;1.17;;;0.60;;
66707;SDS011;53622;0.000;0.000;2024-03-07T12:17:48;1.30;;;0.93;;
66707;SDS011;53622;0.000;0.000;2024-03-07T12:20:18;1.42;;;0.90;;
66707;SDS011;53622;0.000;0.000;2024-03-07T12:22:54;0.88;;;0.80;;
66707;SDS011;53622;0.000;0.000;2024-03-07T12:25:24;0.95;;;0.85;;
66707;SDS011;53622;0.000;0.000;2024-03-07T12:28:00;1.30;;;1.00;;
66707;SDS011;53622;0.000;0.000;2024-03-07T12:30:33;1.77;;;0.85;;
66707;SDS011;53622;0.000;0.000;2024-03-07T12:33:06;1.33;;;0.90;;
66707;SDS011;53622;0.000;0.000;2024-03-07T12:35:36;1.38;;;0.90;;
66707;SDS011;53622;0.000;0.000;2024-03-07T12:38:04;0.88;;;0.65;;
66707;SDS011;53622;0.000;0.000;2024-03-07T12:40:33;0.98;;;0.80;;
66707;SDS011;53622;0.000;0.000;2024-03-07T12:43:12;0.85;;;0.82;;
66707;SDS011;53622;0.000;0.000;2024-03-07T12:45:50;0.90;;;0.80;;
66707;SDS011;53622;0.000;0.000;2024-03-07T12:48:20;1.58;;;0.80;;
66707;SDS011;53622;0.000;0.000;2024-03-07T12:50:52;0.75;;;0.57;;
66707;SDS011;53622;0.000;0.000;2024-03-07T12:53:21;0.95;;;0.85;;
66707;SDS011;53622;0.000;0.000;2024-03-07T12:55:52;0.82;;;0.70;;
66707;SDS011;53622;0.000;0.000;2024-03-07T12:58:21;0.90;;;0.77;;
66707;SDS011;53622;0.000;0.000;2024-03-07T13:00:52;1.40;;;0.88;;
66707;SDS011;53622;0.000;0.000;2024-03-07T13:03:25;1.38;;;0.90;;
66707;SDS011;53622;0.000;0.000;2024-03-07T13:05:58;0.75;;;0.70;;
66707;SDS011;53622;0.000;0.000;2024-03-07T13:08:29;0.82;;;0.70;;
66707;SDS011;53622;0.000;0.000;2024-03-07T13:10:58;0.88;;;0.82;;
66707;SDS011;53622;0.000;0.000;2024-03-07T13:13:28;1.45;;;0.98;;
66707;SDS011;53622;0.000;0.000;2024-03-07T13:15:57;0.80;;;0.80;;
66707;SDS011;53622;0.000;0.000;2024-03-07T13:18:28;1.27;;;0.80;;
66707;SDS011;53622;0.000;0.000;2024-03-07T13:21:03;0.63;;;0.60;;
66707;SDS011;53622;0.000;0.000;2024-03-07T13:23:34;0.65;;;0.65;;
66707;SDS011;53622;0.000;0.000;2024-03-07T13:26:06;0.73;;;0.70;;
66707;SDS011;53622;0.000;0.000;2024-03-07T13:28:43;1.00;;;0.80;;
66707;SDS011;53622;0.000;0.000;2024-03-07T13:31:13;0.98;;;0.70;;
66707;SDS011;53622;0.000;0.000;2024-03-07T13:33:46;1.00;;;0.70;;
66707;SDS011;53622;0.000;0.000;2024-03-07T13:36:18;0.88;;;0.82;;
66707;SDS011;53622;0.000;0.000;2024-03-07T13:38:51;1.10;;;0.80;;
66707;SDS011;53622;0.000;0.000;2024-03-07T13:41:22;0.90;;;0.70;;
66707;SDS011;53622;0.000;0.000;2024-03-07T13:43:52;0.75;;;0.75;;
66707;SDS011;53622;0.000;0.000;2024-03-07T13:46:21;0.88;;;0.80;;
66707;SDS011;53622;0.000;0.000;2024-03-07T13:48:51;0.60;;;0.50;;
66707;SDS011;53622;0.000;0.000;2024-03-07T13:51:20;0.82;;;0.70;;
66707;SDS011;53622;0.000;0.000;2024-03-07T13:53:49;1.15;;;0.70;;
66707;SDS011;53622;0.000;0.000;2024-03-07T13:56:47;0.73;;;0.70;;
66707;SDS011;53622;0.000;0.000;2024-03-07T14:06:00;0.85;;;0.63;;
66707;SDS011;53622;0.000;0.000;2024-03-07T14:08:45;0.68;;;0.63;;
66707;SDS011;53622;0.000;0.000;2024-03-07T14:11:52;0.60;;;0.60;;
66707;SDS011;53622;0.000;0.000;2024-03-07T14:14:59;0.77;;;0.70;;
66707;SDS011;53622;0.000;0.000;2024-03-07T14:18:03;0.80;;;0.70;;
66707;SDS011;53622;0.000;0.000;2024-03-07T14:27:25;0.88;;;0.65;;
66707;SDS011;53622;0.000;0.000;2024-03-07T14:30:09;0.50;;;0.50;;
66707;SDS011;53622;0.000;0.000;2024-03-07T14:32:49;0.57;;;0.57;;
66707;SDS011;53622;0.000;0.000;2024-03-07T14:35:22;1.10;;;0.85;;
66707;SDS011;53622;0.000;0.000;2024-03-07T14:38:05;0.50;;;0.50;;
66707;SDS011;53622;0.000;0.000;2024-03-07T14:40:34;0.52;;;0.52;;
66707;SDS011;53622;0.000;0.000;2024-03-07T14:43:03;1.05;;;0.68;;
66707;SDS011;53622;0.000;0.000;2024-03-07T14:45:35;0.57;;;0.57;;
66707;SDS011;53622;0.000;0.000;2024-03-07T14:48:05;0.73;;;0.70;;
66707;SDS011;53622;0.000;0.000;2024-03-07T14:50:37;0.85;;;0.70;;
66707;SDS011;53622;0.000;0.000;2024-03-07T14:53:08;0.80;;;0.60;;
66707;SDS011;53622;0.000;0.000;2024-03-07T14:55:38;0.73;;;0.60;;
66707;SDS011;53622;0.000;0.000;2024-03-07T14:58:08;0.50;;;0.50;;
66707;SDS011;53622;0.000;0.000;2024-03-07T15:00:38;0.75;;;0.45;;
66707;SDS011;53622;0.000;0.000;2024-03-07T15:03:22;0.40;;;0.40;;
66707;SDS011;53622;0.000;0.000;2024-03-07T15:05:51;0.73;;;0.52;;
66707;SDS011;53622;0.000;0.000;2024-03-07T15:08:21;0.40;;;0.35;;
66707;SDS011;53622;0.000;0.000;2024-03-07T15:10:52;0.55;;;0.55;;
66707;SDS011;53622;0.000;0.000;2024-03-07T15:13:24;0.40;;;0.40;;
66707;SDS011;53622;0.000;0.000;2024-03-07T15:15:53;1.92;;;0.50;;
66707;SDS011;53622;0.000;0.000;2024-03-07T15:18:23;0.90;;;0.60;;
66707;SDS011;53622;0.000;0.000;2024-03-07T15:20:51;0.82;;;0.60;;
66707;SDS011;53622;0.000;0.000;2024-03-07T15:23:22;0.57;;;0.57;;
66707;SDS011;53622;0.000;0.000;2024-03-07T15:25:51;0.75;;;0.50;;
66707;SDS011;53622;0.000;0.000;2024-03-07T15:28:19;0.60;;;0.40;;
66707;SDS011;53622;0.000;0.000;2024-03-07T15:30:48;0.52;;;0.52;;
66707;SDS011;53622;0.000;0.000;2024-03-07T15:33:17;1.63;;;0.60;;
66707;SDS011;53622;0.000;0.000;2024-03-07T15:35:47;0.45;;;0.45;;